Time;durP1;ratioP1;P1;durP2;ratioP2;P2;SDS_P1;SDS_P2;PMS_P1;PMS_P2;Temp;Humidity;BMP_temperature;BMP_pressure;BME280_temperature;BME280_humidity;BME280_pressure;Samples;Min_cycle;Max_cycle;Signal;HPM_P1;HPM_P2
2023/10/10 00:01:06;;;;;;;2.88;1.10;;;8.50;72.60;;;;;;5027718;28;20042;-85
2023/10/10 00:03:35;;;;;;;1.38;1.13;;;8.50;72.50;;;;;;5008226;28;20033;-84
2023/10/10 00:06:08;;;;;;;1.20;1.13;;;8.40;72.40;;;;;;5008046;28;20125;-84
2023/10/10 00:08:35;;;;;;;1.30;1.20;;;8.50;72.40;;;;;;4997943;28;20033;-84
2023/10/10 00:11:16;;;;;;;1.40;1.27;;;8.40;72.20;;;;;;5013001;28;20130;-83
2023/10/10 00:13:43;;;;;;;1.45;1.35;;;8.40;72.20;;;;;;5008991;28;20535;-84
2023/10/10 00:16:11;;;;;;;1.70;1.27;;;8.40;72.10;;;;;;5009855;28;20037;-84
2023/10/10 00:18:43;;;;;;;1.35;1.20;;;8.40;72.10;;;;;;5012363;28;20042;-83
2023/10/10 00:21:20;;;;;;;1.40;1.30;;;8.40;72.00;;;;;;5007935;28;20060;-81
2023/10/10 00:23:54;;;;;;;0.93;0.90;;;8.40;72.00;;;;;;5006826;28;20049;-83
2023/10/10 00:26:21;;;;;;;1.15;1.15;;;8.40;72.00;;;;;;5022824;28;20029;-83
2023/10/10 00:28:56;;;;;;;1.83;1.45;;;8.40;72.00;;;;;;5008426;28;20041;-84
2023/10/10 00:31:26;;;;;;;1.40;1.27;;;8.40;72.00;;;;;;5009824;28;20095;-84
2023/10/10 00:33:53;;;;;;;2.03;1.35;;;8.40;72.00;;;;;;4992154;28;20041;-81
2023/10/10 00:36:31;;;;;;;1.30;1.20;;;8.40;72.00;;;;;;5022925;28;20145;-82
2023/10/10 00:39:12;;;;;;;1.33;1.10;;;8.40;72.00;;;;;;5008053;28;20519;-83
2023/10/10 00:41:51;;;;;;;0.98;0.98;;;8.40;72.00;;;;;;5023934;28;20117;-83
2023/10/10 00:44:18;;;;;;;1.17;1.08;;;8.40;71.90;;;;;;5010792;28;20397;-82
2023/10/10 00:46:55;;;;;;;1.30;1.20;;;8.30;71.80;;;;;;5024776;28;20039;-82
2023/10/10 00:49:31;;;;;;;2.17;1.35;;;8.40;71.80;;;;;;5010338;28;20134;-83
2023/10/10 00:52:06;;;;;;;1.23;1.13;;;8.40;71.70;;;;;;5024064;28;20038;-83
2023/10/10 00:54:40;;;;;;;;;;;8.30;71.60;;;;;;5005085;28;20546;-83
2023/10/10 00:57:16;;;;;;;1.33;1.25;;;8.30;71.50;;;;;;5008337;28;19921;-84
2023/10/10 00:59:43;;;;;;;1.27;1.27;;;8.40;71.60;;;;;;5025490;28;20040;-86
2023/10/10 01:02:11;;;;;;;1.63;1.30;;;8.30;71.50;;;;;;5014221;28;20476;-84
2023/10/10 01:04:39;;;;;;;1.65;1.55;;;8.40;71.60;;;;;;4991648;28;20037;-82
2023/10/10 01:07:10;;;;;;;1.40;1.30;;;8.30;71.50;;;;;;5024116;28;20034;-83
2023/10/10 01:09:51;;;;;;;1.15;0.95;;;8.30;71.50;;;;;;5011129;28;20066;-83
2023/10/10 01:12:17;;;;;;;1.70;1.27;;;8.30;71.50;;;;;;5022281;28;20038;-84
2023/10/10 01:14:43;;;;;;;1.33;1.23;;;8.30;71.50;;;;;;5004885;28;20607;-84
2023/10/10 01:17:12;;;;;;;1.20;1.10;;;8.30;71.60;;;;;;5000958;28;20522;-84
2023/10/10 01:19:38;;;;;;;1.17;1.08;;;8.30;71.60;;;;;;4986641;28;20038;-84
2023/10/10 01:22:22;;;;;;;1.55;1.45;;;8.30;71.70;;;;;;4989445;28;20525;-84
2023/10/10 01:24:53;;;;;;;1.42;1.33;;;8.30;71.60;;;;;;5002046;28;20121;-85
2023/10/10 01:27:21;;;;;;;1.30;1.20;;;8.30;71.50;;;;;;5002007;28;20048;-84
2023/10/10 01:30:17;;;;;;;1.20;1.20;;;8.30;71.40;;;;;;5018970;28;20073;-84
2023/10/10 01:32:39;;;;;;;0.93;0.93;;;8.30;71.50;;;;;;4983726;28;20031;-85
2023/10/10 01:35:16;;;;;;;1.65;1.48;;;8.30;71.40;;;;;;4989008;28;20088;-84
2023/10/10 01:37:43;;;;;;;1.40;1.30;;;8.30;71.40;;;;;;5007646;28;20128;-84
2023/10/10 01:40:13;;;;;;;1.40;1.30;;;8.30;71.40;;;;;;5009447;28;20530;-81
2023/10/10 01:42:45;;;;;;;1.50;1.40;;;8.30;71.40;;;;;;4993500;28;20632;-84
2023/10/10 01:45:11;;;;;;;1.40;1.30;;;8.30;71.50;;;;;;5004360;28;20037;-84
2023/10/10 01:47:39;;;;;;;1.20;1.10;;;8.20;71.50;;;;;;5008563;28;20152;-83
2023/10/10 01:50:11;;;;;;;1.60;1.50;;;8.20;71.50;;;;;;5013232;28;20045;-83
2023/10/10 01:52:38;;;;;;;2.05;1.38;;;8.20;71.50;;;;;;5008675;28;20089;-82
2023/10/10 01:55:10;;;;;;;1.50;1.40;;;8.20;71.50;;;;;;4994413;28;20038;-81
2023/10/10 01:57:36;;;;;;;1.70;1.60;;;8.20;71.60;;;;;;5021907;28;20068;-82
2023/10/10 02:00:19;;;;;;;2.25;1.55;;;8.20;71.60;;;;;;5019793;28;20041;-81
2023/10/10 02:02:49;;;;;;;1.02;1.02;;;8.20;71.60;;;;;;4992767;28;20123;-82
2023/10/10 02:05:30;;;;;;;1.38;1.20;;;8.20;71.60;;;;;;5009027;28;20562;-82
2023/10/10 02:07:57;;;;;;;1.50;1.40;;;8.20;71.70;;;;;;5007525;28;20084;-83
2023/10/10 02:10:26;;;;;;;1.25;1.10;;;8.20;71.80;;;;;;5001714;28;20027;-85
2023/10/10 02:12:53;;;;;;;1.15;1.13;;;8.20;71.90;;;;;;5028122;28;20108;-82
2023/10/10 02:15:25;;;;;;;1.40;1.30;;;8.20;72.00;;;;;;5019943;28;20073;-85
2023/10/10 02:17:55;;;;;;;1.55;1.20;;;8.20;72.10;;;;;;5023737;28;20716;-83
2023/10/10 02:23:09;;;;;;;1.52;1.25;;;8.20;72.30;;;;;;5037361;28;20046;-83
2023/10/10 02:30:46;;;;;;;2.15;1.30;;;8.20;72.40;;;;;;5021080;28;20052;-82
2023/10/10 02:35:54;;;;;;;0.93;0.93;;;8.20;72.60;;;;;;5037490;28;20784;-84
2023/10/10 02:38:31;;;;;;;1.10;1.10;;;8.20;72.60;;;;;;5007546;28;20033;-84
2023/10/10 02:41:27;;;;;;;1.20;1.10;;;8.10;72.60;;;;;;5022016;28;20102;-82
2023/10/10 02:46:35;;;;;;;2.30;1.38;;;8.20;72.60;;;;;;5017980;28;20030;-81
2023/10/10 02:49:09;;;;;;;1.08;0.98;;;8.20;72.60;;;;;;5031701;28;20037;-82
2023/10/10 02:51:57;;;;;;;1.20;1.05;;;8.10;72.60;;;;;;5007820;28;20030;-82
2023/10/10 02:56:57;;;;;;;1.27;1.17;;;8.20;72.60;;;;;;5027097;28;20129;-83
2023/10/10 02:59:38;;;;;;;1.00;0.90;;;8.10;72.50;;;;;;5023730;28;20500;-83
2023/10/10 03:02:18;;;;;;;1.10;1.00;;;8.10;72.60;;;;;;5020114;28;20042;-83
2023/10/10 03:05:06;;;;;;;1.20;1.10;;;8.10;72.60;;;;;;5023218;28;20034;-83
2023/10/10 03:07:35;;;;;;;0.95;0.95;;;8.20;72.60;;;;;;5035736;28;20036;-76
2023/10/10 03:12:42;;;;;;;1.08;1.05;;;8.10;72.60;;;;;;5022834;28;20129;-85
2023/10/10 03:15:27;;;;;;;1.40;1.10;;;8.10;72.60;;;;;;5023731;28;20041;-84
2023/10/10 03:20:33;;;;;;;1.10;1.10;;;8.10;72.70;;;;;;5005238;28;20065;-85
2023/10/10 03:25:51;;;;;;;1.00;1.00;;;8.10;72.70;;;;;;5010425;28;20034;-88
2023/10/10 03:28:20;;;;;;;1.08;0.98;;;8.10;72.70;;;;;;5002080;28;20500;-84
2023/10/10 05:25:31;;;;;;;4.45;2.20;;;8.20;72.70;;;;;;5000443;28;20516;-83
2023/10/10 05:28:00;;;;;;;3.20;2.10;;;8.20;72.80;;;;;;5017028;28;20041;-82
2023/10/10 05:30:45;;;;;;;1.88;1.77;;;8.20;72.80;;;;;;5002334;28;20038;-81
2023/10/10 05:33:19;;;;;;;2.22;1.77;;;8.20;72.90;;;;;;5001576;28;20052;-81
2023/10/10 05:35:48;;;;;;;1.80;1.70;;;8.20;72.90;;;;;;5002402;28;20362;-81
2023/10/10 05:38:19;;;;;;;1.58;1.48;;;8.20;73.00;;;;;;5000568;28;20033;-81
2023/10/10 05:40:47;;;;;;;1.63;1.52;;;8.20;73.00;;;;;;5002241;28;20030;-81
2023/10/10 05:43:16;;;;;;;1.48;1.38;;;8.20;73.00;;;;;;5002854;28;20034;-81
2023/10/10 05:45:46;;;;;;;1.48;1.33;;;8.20;72.90;;;;;;5002484;28;20041;-81
2023/10/10 05:48:14;;;;;;;1.30;1.20;;;8.20;72.90;;;;;;5000991;28;20041;-82
2023/10/10 05:50:40;;;;;;;1.40;1.30;;;8.20;72.80;;;;;;5001215;28;20038;-81
2023/10/10 05:53:07;;;;;;;2.00;1.48;;;8.20;72.80;;;;;;5003123;28;20173;-82
2023/10/10 05:55:37;;;;;;;1.63;1.27;;;8.20;72.80;;;;;;5015654;28;20180;-82
2023/10/10 05:58:05;;;;;;;1.25;1.15;;;8.20;72.80;;;;;;5002761;28;20520;-81
2023/10/10 06:00:37;;;;;;;1.30;1.20;;;8.20;72.80;;;;;;5009130;28;20084;-82
2023/10/10 06:03:07;;;;;;;1.05;0.95;;;8.20;72.70;;;;;;5016551;28;20049;-80
2023/10/10 06:05:40;;;;;;;2.10;1.10;;;8.20;72.80;;;;;;5006891;28;20466;-81
2023/10/10 06:08:06;;;;;;;0.88;0.88;;;8.20;72.80;;;;;;5021258;28;20117;-81
2023/10/10 06:10:33;;;;;;;1.02;1.02;;;8.20;72.80;;;;;;5003504;28;20034;-81
2023/10/10 06:13:06;;;;;;;1.00;1.00;;;8.20;72.80;;;;;;5008796;28;20085;-81
2023/10/10 06:15:34;;;;;;;1.25;1.02;;;8.20;72.80;;;;;;5005858;28;20083;-81
2023/10/10 06:18:14;;;;;;;1.00;0.90;;;8.20;72.70;;;;;;4999349;28;20558;-82
2023/10/10 06:20:44;;;;;;;0.90;0.90;;;8.20;72.70;;;;;;5017710;28;20044;-83
2023/10/10 06:23:18;;;;;;;0.85;0.82;;;8.20;72.60;;;;;;4998683;28;20243;-83
2023/10/10 06:25:45;;;;;;;1.58;1.20;;;8.20;72.70;;;;;;5016516;28;20050;-81
2023/10/10 06:28:25;;;;;;;1.48;1.38;;;8.20;72.80;;;;;;5015935;28;20033;-82
2023/10/10 06:30:55;;;;;;;1.50;1.20;;;8.20;72.70;;;;;;5010841;28;20037;-82
2023/10/10 06:33:33;;;;;;;1.48;1.38;;;8.20;72.80;;;;;;5004506;28;20027;-81
2023/10/10 06:41:38;;;;;;;11.65;7.68;;;8.20;72.80;;;;;;5007544;28;20076;-81
2023/10/10 06:44:05;;;;;;;6.50;4.90;;;8.20;72.90;;;;;;5020037;28;20030;-80
2023/10/10 06:46:37;;;;;;;5.57;4.32;;;8.20;72.80;;;;;;5007749;28;20078;-81
2023/10/10 06:49:06;;;;;;;5.53;3.88;;;8.20;72.80;;;;;;5005629;28;20034;-81
2023/10/10 06:51:39;;;;;;;3.95;2.97;;;8.30;72.80;;;;;;5006675;28;20030;-80
2023/10/10 06:54:27;;;;;;;4.38;3.22;;;8.20;72.80;;;;;;5007386;28;20031;-81
2023/10/10 06:57:04;;;;;;;2.90;2.53;;;8.30;72.80;;;;;;5007309;28;20041;-81
2023/10/10 06:59:30;;;;;;;3.45;2.60;;;8.30;72.80;;;;;;5006776;28;20037;-82
2023/10/10 07:01:59;;;;;;;2.65;2.10;;;8.30;72.80;;;;;;5004400;28;20092;-81
2023/10/10 07:04:29;;;;;;;3.20;2.15;;;8.30;72.80;;;;;;5025121;28;20038;-82
2023/10/10 07:07:00;;;;;;;2.60;2.03;;;8.30;72.80;;;;;;5001858;28;20073;-82
2023/10/10 07:09:29;;;;;;;1.95;1.80;;;8.30;72.80;;;;;;5022857;28;20034;-83
2023/10/10 07:11:56;;;;;;;2.03;1.80;;;8.30;72.80;;;;;;5019457;28;20030;-83
2023/10/10 07:14:26;;;;;;;2.47;1.90;;;8.30;72.80;;;;;;5000046;28;20037;-82
2023/10/10 07:16:56;;;;;;;1.88;1.77;;;8.30;72.90;;;;;;5034697;28;20038;-84
2023/10/10 07:19:31;;;;;;;1.80;1.70;;;8.30;72.90;;;;;;5019975;28;20088;-82
2023/10/10 07:21:59;;;;;;;2.23;1.60;;;8.30;72.90;;;;;;4982322;28;20057;-83
2023/10/10 07:24:28;;;;;;;1.48;1.38;;;8.30;72.90;;;;;;5002374;28;20373;-83
2023/10/10 07:27:13;;;;;;;1.20;1.13;;;8.30;72.80;;;;;;5015793;28;20132;-83
2023/10/10 07:32:17;;;;;;;1.77;1.30;;;8.30;72.80;;;;;;5014540;28;20029;-83
2023/10/10 07:34:49;;;;;;;1.55;1.40;;;8.30;72.80;;;;;;5004021;28;20393;-84
2023/10/10 07:37:19;;;;;;;1.30;1.20;;;8.30;72.80;;;;;;5016753;28;20417;-83
2023/10/10 07:42:49;;;;;;;1.20;1.10;;;8.30;72.80;;;;;;4997302;28;20331;-83
2023/10/10 07:45:26;;;;;;;2.17;1.30;;;8.30;72.70;;;;;;5000484;28;20034;-85
2023/10/10 07:50:34;;;;;;;1.40;1.30;;;8.30;72.60;;;;;;4985495;28;20164;-80
2023/10/10 07:53:04;;;;;;;1.85;1.50;;;8.40;72.70;;;;;;5016538;28;20057;-84
2023/10/10 07:55:38;;;;;;;1.40;1.30;;;8.40;72.60;;;;;;5001388;28;20066;-84
2023/10/10 07:58:06;;;;;;;1.50;1.40;;;8.40;72.60;;;;;;4985279;28;20143;-83
2023/10/10 08:00:35;;;;;;;1.40;1.30;;;8.40;72.50;;;;;;5005454;28;20042;-83
2023/10/10 08:03:03;;;;;;;1.20;1.17;;;8.40;72.50;;;;;;5001409;28;20061;-84
2023/10/10 08:05:29;;;;;;;2.47;1.50;;;8.40;72.40;;;;;;4952805;28;20081;-84
2023/10/10 08:07:56;;;;;;;1.30;1.20;;;8.40;72.40;;;;;;4988441;28;20042;-81
2023/10/10 08:13:12;;;;;;;1.85;1.67;;;8.40;72.30;;;;;;5000595;28;20029;-79
2023/10/10 08:15:56;;;;;;;1.40;1.23;;;8.40;72.30;;;;;;5000663;28;20038;-78
2023/10/10 08:21:13;;;;;;;1.50;1.40;;;8.50;72.40;;;;;;5004136;28;20531;-78
2023/10/10 08:23:46;;;;;;;1.90;1.25;;;8.50;74.70;;;;;;5002151;28;20058;-78
2023/10/10 08:26:19;;;;;;;1.75;1.65;;;8.50;74.20;;;;;;5002919;28;20037;-78
2023/10/10 08:28:46;;;;;;;1.80;1.50;;;8.50;73.70;;;;;;5002192;28;20039;-79
2023/10/10 08:31:13;;;;;;;2.40;1.65;;;8.50;73.30;;;;;;5005448;28;20038;-78
2023/10/10 08:33:46;;;;;;;1.55;1.30;;;8.60;73.00;;;;;;5002450;28;20088;-78
2023/10/10 08:36:23;;;;;;;1.85;1.60;;;8.60;72.70;;;;;;5005492;28;20033;-78
2023/10/10 08:38:54;;;;;;;1.77;1.67;;;8.60;72.50;;;;;;5004273;28;20045;-79
2023/10/10 08:41:26;;;;;;;3.00;1.40;;;8.70;72.40;;;;;;5010060;28;20030;-78
2023/10/10 08:44:01;;;;;;;2.15;1.50;;;8.70;72.20;;;;;;5001481;28;20559;-77
2023/10/10 08:46:31;;;;;;;3.27;1.67;;;8.70;72.00;;;;;;5004164;28;20038;-78
2023/10/10 08:49:04;;;;;;;1.50;1.38;;;8.80;72.00;;;;;;5015544;28;20503;-77
2023/10/10 08:51:33;;;;;;;1.50;1.40;;;8.80;71.90;;;;;;5016106;28;20053;-77
2023/10/10 08:54:09;;;;;;;1.67;1.38;;;8.90;71.80;;;;;;5006603;28;20030;-77
2023/10/10 08:57:00;;;;;;;1.40;1.30;;;8.90;71.80;;;;;;5004585;28;20377;-77
2023/10/10 08:59:28;;;;;;;1.63;1.50;;;8.90;71.60;;;;;;5006675;28;20101;-77
2023/10/10 09:02:05;;;;;;;1.63;1.38;;;9.00;71.40;;;;;;5008595;28;20033;-83
2023/10/10 09:04:31;;;;;;;2.65;1.20;;;9.00;71.30;;;;;;5005831;28;20029;-78
2023/10/10 09:06:59;;;;;;;1.80;1.33;;;9.20;78.40;;;;;;5006303;28;21082;-78
2023/10/10 09:09:39;;;;;;;1.63;1.30;;;9.30;80.70;;;;;;5009199;28;20034;-78
2023/10/10 09:12:14;;;;;;;1.85;1.10;;;9.30;81.70;;;;;;5003510;28;20030;-78
2023/10/10 09:14:49;;;;;;;4.32;1.33;;;9.30;80.70;;;;;;5007471;28;20026;-79
2023/10/10 09:17:28;;;;;;;;;;;9.30;79.10;;;;;;5006585;28;20088;-80
2023/10/10 09:19:57;;;;;;;1.30;1.20;;;9.40;77.80;;;;;;5003947;28;20375;-79
2023/10/10 09:22:43;;;;;;;1.33;1.10;;;9.40;76.50;;;;;;5004508;28;20045;-83
2023/10/10 09:25:25;;;;;;;2.33;1.23;;;9.50;76.30;;;;;;5003214;28;20030;-83
2023/10/10 09:28:08;;;;;;;1.25;1.00;;;9.60;77.90;;;;;;5006202;28;20103;-84
2023/10/10 09:30:40;;;;;;;2.65;1.15;;;9.60;79.80;;;;;;5011819;28;20076;-81
2023/10/10 09:35:59;;;;;;;1.75;1.30;;;9.60;78.10;;;;;;5026121;28;20036;-84
2023/10/10 09:38:33;;;;;;;1.15;1.00;;;9.70;76.50;;;;;;5006437;28;20128;-84
2023/10/10 09:49:44;;;;;;;1.17;1.08;;;9.70;72.70;;;;;;5000120;28;20052;-83
2023/10/10 10:06:54;;;;;;;1.10;0.77;;;9.90;72.80;;;;;;5001246;28;20052;-82
2023/10/10 10:09:09;;;;;;;1.00;0.90;;;9.90;72.70;;;;;;4989904;28;20064;-78
2023/10/10 10:12:08;;;;;;;2.63;0.80;;;10.00;78.60;;;;;;5002061;28;20433;-74
2023/10/10 10:15:18;;;;;;;1.13;0.80;;;10.30;90.00;;;;;;4999634;28;20029;-81
2023/10/10 10:17:54;;;;;;;1.50;0.90;;;10.50;89.50;;;;;;4998366;28;20029;-78
2023/10/10 10:20:42;;;;;;;2.38;1.10;;;10.60;87.00;;;;;;5003017;28;20503;-78
2023/10/10 10:23:16;;;;;;;1.25;1.10;;;10.60;83.50;;;;;;5021137;28;20072;-79
2023/10/10 10:25:46;;;;;;;1.77;0.73;;;10.60;80.40;;;;;;5020880;28;20137;-78
2023/10/10 10:28:15;;;;;;;0.90;0.90;;;10.60;78.60;;;;;;5020279;28;20112;-79
2023/10/10 10:30:50;;;;;;;1.25;0.90;;;10.60;76.70;;;;;;5020347;28;20055;-79
2023/10/10 10:33:21;;;;;;;0.70;0.70;;;10.60;76.10;;;;;;5022973;28;20120;-79
2023/10/10 10:35:48;;;;;;;2.22;0.88;;;10.60;74.90;;;;;;5021230;28;20029;-79
2023/10/10 10:38:17;;;;;;;0.88;0.88;;;10.60;73.90;;;;;;5021135;28;20076;-79
2023/10/10 10:40:46;;;;;;;0.75;0.70;;;10.50;72.70;;;;;;5020747;28;20033;-78
2023/10/10 10:43:20;;;;;;;2.63;0.98;;;10.60;71.90;;;;;;5019876;28;20088;-79
2023/10/10 10:45:52;;;;;;;1.25;0.90;;;10.60;71.60;;;;;;5020188;28;20029;-78
2023/10/10 10:48:33;;;;;;;0.82;0.75;;;10.60;71.80;;;;;;5019734;28;20034;-78
2023/10/10 10:51:41;;;;;;;1.52;0.70;;;10.50;71.30;;;;;;5020195;28;20492;-77
2023/10/10 10:54:00;;;;;;;1.75;1.02;;;10.60;71.20;;;;;;5021151;28;20034;-77
2023/10/10 10:59:21;;;;;;;1.20;0.90;;;10.50;70.80;;;;;;5019862;28;20443;-78
2023/10/10 11:01:51;;;;;;;0.80;0.80;;;10.50;70.50;;;;;;5021317;28;20041;-77
2023/10/10 11:04:42;;;;;;;1.00;0.90;;;10.50;70.40;;;;;;5019482;28;20044;-78
2023/10/10 11:07:27;;;;;;;2.05;0.80;;;10.50;70.20;;;;;;5018829;28;20160;-77
2023/10/10 11:09:54;;;;;;;1.33;0.85;;;10.40;69.90;;;;;;5021460;28;20060;-77
2023/10/10 11:12:31;;;;;;;1.20;0.88;;;10.50;69.80;;;;;;5021046;28;20059;-80
2023/10/10 11:14:58;;;;;;;0.98;0.63;;;10.50;70.60;;;;;;5021775;28;20091;-77
2023/10/10 11:17:25;;;;;;;0.60;0.60;;;10.50;71.60;;;;;;5019222;28;20033;-78
2023/10/10 11:19:54;;;;;;;1.00;0.82;;;10.50;71.20;;;;;;5020926;28;20037;-86
2023/10/10 11:22:39;;;;;;;0.85;0.85;;;10.50;70.70;;;;;;5020582;28;20046;-84
2023/10/10 11:25:11;;;;;;;1.17;0.88;;;10.40;70.20;;;;;;5006791;28;20451;-85
2023/10/10 11:27:44;;;;;;;1.20;0.80;;;10.40;69.90;;;;;;5010052;28;20772;-81
2023/10/10 11:30:24;;;;;;;1.52;0.57;;;10.40;69.70;;;;;;5026456;28;20038;-81
2023/10/10 11:33:00;;;;;;;1.13;0.80;;;10.40;69.50;;;;;;5025603;28;20431;-82
2023/10/10 11:35:26;;;;;;;0.68;0.52;;;10.40;69.30;;;;;;5015169;28;20079;-85
2023/10/10 11:40:52;;;;;;;1.35;0.80;;;10.40;69.00;;;;;;4998078;28;20054;-85
2023/10/10 11:43:21;;;;;;;1.67;0.70;;;10.40;68.80;;;;;;5037247;28;20087;-84
2023/10/10 11:45:53;;;;;;;1.92;0.70;;;10.40;68.40;;;;;;5032172;28;20039;-85
2023/10/10 11:48:19;;;;;;;0.88;0.70;;;10.40;68.30;;;;;;4996988;28;20047;-80
2023/10/10 11:50:49;;;;;;;1.75;0.80;;;10.40;68.20;;;;;;5022090;28;20544;-83
2023/10/10 11:53:23;;;;;;;0.50;0.50;;;10.40;68.30;;;;;;5021139;28;20477;-84
2023/10/10 11:55:52;;;;;;;1.10;0.70;;;10.40;68.40;;;;;;5009540;28;20089;-86
2023/10/10 11:58:18;;;;;;;0.52;0.50;;;10.40;68.50;;;;;;4988218;28;20145;-86
2023/10/10 12:00:45;;;;;;;1.05;0.68;;;10.40;68.50;;;;;;5007389;28;20532;-86
2023/10/10 12:03:13;;;;;;;1.08;0.88;;;10.40;69.50;;;;;;5011156;28;20076;-86
2023/10/10 12:05:51;;;;;;;0.68;0.60;;;10.50;69.90;;;;;;5023343;28;20041;-87
2023/10/10 12:08:24;;;;;;;6.82;0.82;;;10.50;70.10;;;;;;5006191;28;20029;-86
2023/10/10 12:10:52;;;;;;;0.85;0.60;;;10.50;70.20;;;;;;5021547;28;20041;-84
2023/10/10 12:13:25;;;;;;;3.22;0.85;;;10.50;71.00;;;;;;5022504;28;20593;-84
2023/10/10 12:15:51;;;;;;;1.20;0.63;;;10.60;71.40;;;;;;5021881;28;20041;-87
2023/10/10 12:18:17;;;;;;;0.80;0.73;;;10.60;71.60;;;;;;5021234;28;20303;-84
2023/10/10 12:20:46;;;;;;;0.60;0.60;;;10.50;71.10;;;;;;5037943;28;20144;-86
2023/10/10 12:23:13;;;;;;;0.82;0.60;;;10.50;70.50;;;;;;5022714;28;20049;-83
2023/10/10 12:25:41;;;;;;;0.95;0.80;;;10.50;70.00;;;;;;5039383;28;20034;-81
2023/10/10 12:28:09;;;;;;;1.67;0.95;;;10.50;69.70;;;;;;5022957;28;20034;-80
2023/10/10 12:30:41;;;;;;;0.80;0.80;;;10.50;69.40;;;;;;5023946;28;20060;-82
2023/10/10 12:33:15;;;;;;;1.20;0.80;;;10.50;69.20;;;;;;5038754;28;20044;-82
2023/10/10 12:35:47;;;;;;;0.93;0.88;;;10.50;69.00;;;;;;5022775;28;20110;-83
2023/10/10 12:38:21;;;;;;;1.13;0.98;;;10.40;68.70;;;;;;5010006;28;20033;-83
2023/10/10 12:40:48;;;;;;;3.88;0.82;;;10.40;68.80;;;;;;5022393;28;20046;-77
2023/10/10 12:43:15;;;;;;;3.58;0.90;;;10.40;70.80;;;;;;5022067;28;20122;-78
2023/10/10 12:45:41;;;;;;;1.67;0.70;;;10.50;77.60;;;;;;5023675;28;20800;-90
2023/10/10 12:48:14;;;;;;;0.88;0.55;;;10.60;80.70;;;;;;5039731;28;20038;-85
2023/10/10 12:50:41;;;;;;;5.50;0.88;;;10.70;85.90;;;;;;5020306;28;20117;-82
2023/10/10 12:53:07;;;;;;;3.03;1.20;;;11.00;86.80;;;;;;5025005;28;20044;-81
2023/10/10 12:55:36;;;;;;;4.70;1.02;;;11.10;85.10;;;;;;5023827;28;20499;-80
2023/10/10 12:58:09;;;;;;;4.25;0.90;;;11.10;83.40;;;;;;5021529;28;20048;-82
2023/10/10 13:00:36;;;;;;;1.98;0.80;;;11.10;81.80;;;;;;5017946;28;20132;-76
2023/10/10 13:03:06;;;;;;;2.22;0.95;;;11.10;79.80;;;;;;5022802;28;20041;-75
2023/10/10 13:05:33;;;;;;;2.70;0.90;;;11.10;80.80;;;;;;5021267;28;20033;-77
2023/10/10 13:08:05;;;;;;;5.00;0.70;;;11.20;80.20;;;;;;5022704;28;20120;-76
2023/10/10 13:10:37;;;;;;;5.50;1.38;;;11.20;83.40;;;;;;5024340;28;20180;-75
2023/10/10 13:13:07;;;;;;;4.82;1.25;;;11.40;87.20;;;;;;5035027;28;20033;-77
2023/10/10 13:15:46;;;;;;;6.20;1.40;;;11.40;85.80;;;;;;5021255;28;20037;-74
2023/10/10 13:18:19;;;;;;;3.28;1.00;;;11.40;83.00;;;;;;5022135;28;20029;-75
2023/10/10 13:20:53;;;;;;;3.53;1.00;;;11.30;79.80;;;;;;5022029;28;20040;-74
2023/10/10 13:23:21;;;;;;;3.47;1.15;;;11.30;77.50;;;;;;5022040;28;20057;-78
2023/10/10 13:25:50;;;;;;;2.05;0.90;;;11.30;75.90;;;;;;5024082;28;20049;-75
2023/10/10 13:28:20;;;;;;;3.63;1.17;;;11.20;74.90;;;;;;5021089;28;20633;-77
2023/10/10 13:30:47;;;;;;;1.25;0.82;;;11.20;73.90;;;;;;5024152;28;20025;-78
2023/10/10 13:33:17;;;;;;;1.73;1.05;;;11.20;73.20;;;;;;5022215;28;20549;-75
2023/10/10 13:35:44;;;;;;;3.03;1.20;;;11.20;72.70;;;;;;5025856;28;20035;-75
2023/10/10 13:38:11;;;;;;;1.52;1.05;;;11.10;72.10;;;;;;5020383;28;20029;-76
2023/10/10 13:40:48;;;;;;;1.67;0.95;;;11.10;71.80;;;;;;5020746;28;20083;-76
2023/10/10 13:43:18;;;;;;;3.83;1.20;;;11.10;71.60;;;;;;5020982;28;20437;-76
2023/10/10 13:45:51;;;;;;;1.00;0.90;;;11.00;71.30;;;;;;5021730;28;20626;-75
2023/10/10 13:48:23;;;;;;;2.05;1.02;;;11.00;71.10;;;;;;5039185;28;20037;-75
2023/10/10 13:50:54;;;;;;;1.30;1.20;;;11.00;70.90;;;;;;5021551;28;20045;-77
2023/10/10 13:53:20;;;;;;;1.95;1.27;;;10.90;70.70;;;;;;5019810;28;20041;-75
2023/10/10 13:55:46;;;;;;;1.80;1.20;;;10.90;70.40;;;;;;5019976;28;20061;-76
2023/10/10 13:58:13;;;;;;;1.58;1.17;;;10.90;70.30;;;;;;5021212;28;20037;-76
2023/10/10 14:01:13;;;;;;;1.65;1.20;;;10.90;69.90;;;;;;5019792;28;20536;-76
2023/10/10 14:03:45;;;;;;;1.02;0.93;;;10.80;69.70;;;;;;5020592;28;20048;-74
2023/10/10 14:06:16;;;;;;;1.42;1.02;;;10.80;69.30;;;;;;5021708;28;20507;-75
2023/10/10 14:08:47;;;;;;;2.22;0.80;;;10.80;68.90;;;;;;5020410;28;20048;-76
2023/10/10 14:11:23;;;;;;;1.05;0.90;;;10.70;68.80;;;;;;5021522;28;20053;-80
2023/10/10 14:13:53;;;;;;;2.60;1.17;;;10.70;68.60;;;;;;5020395;28;20038;-78
2023/10/10 14:16:22;;;;;;;1.58;0.98;;;10.70;69.80;;;;;;5006697;28;20034;-75
2023/10/10 14:18:52;;;;;;;3.72;1.00;;;10.70;76.50;;;;;;5004019;28;20034;-78
2023/10/10 14:21:27;;;;;;;4.40;1.10;;;10.80;81.60;;;;;;5005361;28;20088;-77
2023/10/10 14:24:08;;;;;;;7.25;1.48;;;10.80;81.30;;;;;;5004222;28;20077;-77
2023/10/10 14:26:37;;;;;;;4.05;1.42;;;10.80;78.80;;;;;;5008142;28;20029;-77
2023/10/10 14:29:07;;;;;;;1.88;1.00;;;10.70;76.30;;;;;;5005601;28;20030;-77
2023/10/10 14:31:34;;;;;;;1.52;0.90;;;10.70;74.50;;;;;;5005897;28;20033;-78
2023/10/10 14:34:05;;;;;;;2.47;1.05;;;10.70;73.10;;;;;;5001732;28;20521;-77
2023/10/10 14:36:32;;;;;;;3.17;0.90;;;10.60;72.10;;;;;;5003312;28;20063;-76
2023/10/10 14:38:58;;;;;;;1.52;0.88;;;10.60;71.00;;;;;;5004122;28;20037;-78
2023/10/10 14:41:30;;;;;;;1.75;0.90;;;10.50;70.40;;;;;;5004383;28;20038;-77
2023/10/10 14:44:00;;;;;;;3.05;1.05;;;10.50;69.90;;;;;;5000094;28;20052;-76
2023/10/10 14:46:31;;;;;;;3.75;1.10;;;10.40;69.90;;;;;;5000057;28;20038;-76
2023/10/10 14:49:06;;;;;;;2.17;1.20;;;10.50;75.00;;;;;;5000272;28;20038;-77
2023/10/10 14:51:36;;;;;;;4.25;1.38;;;10.50;74.90;;;;;;5000891;28;20068;-78
2023/10/10 14:54:12;;;;;;;1.48;1.15;;;10.50;73.50;;;;;;5000579;28;20137;-79
2023/10/10 14:56:45;;;;;;;1.50;0.90;;;10.40;72.20;;;;;;5000924;28;20041;-79
2023/10/10 14:59:24;;;;;;;4.32;0.95;;;10.40;70.70;;;;;;5035640;28;20029;-76
2023/10/10 15:01:52;;;;;;;1.70;1.10;;;10.40;70.60;;;;;;5019657;28;20038;-77
2023/10/10 15:04:20;;;;;;;1.83;0.80;;;10.40;70.10;;;;;;5022283;28;20041;-84
2023/10/10 15:06:48;;;;;;;2.05;1.08;;;10.30;69.50;;;;;;5024750;28;20037;-77
2023/10/10 15:09:23;;;;;;;1.60;1.17;;;10.30;69.50;;;;;;5023772;28;20029;-78
2023/10/10 15:11:50;;;;;;;2.30;0.80;;;10.30;69.20;;;;;;5023080;28;20350;-78
2023/10/10 15:14:21;;;;;;;0.88;0.82;;;10.20;69.50;;;;;;5023817;28;20444;-78
2023/10/10 15:16:48;;;;;;;1.08;0.98;;;10.10;68.60;;;;;;5025006;28;20037;-78
2023/10/10 15:19:15;;;;;;;2.38;1.00;;;10.10;68.50;;;;;;5023660;28;20116;-78
2023/10/10 15:21:40;;;;;;;0.93;0.90;;;10.10;68.40;;;;;;5024575;28;20056;-78
2023/10/10 15:24:11;;;;;;;0.98;0.80;;;10.10;68.40;;;;;;5025561;28;20037;-77
2023/10/10 15:26:47;;;;;;;0.93;0.80;;;10.00;68.20;;;;;;5037910;28;20033;-76
2023/10/10 15:29:17;;;;;;;3.08;1.10;;;10.00;68.10;;;;;;5026214;28;20186;-77
2023/10/10 15:31:45;;;;;;;5.95;1.40;;;10.00;68.10;;;;;;5025963;28;20037;-77
2023/10/10 15:34:13;;;;;;;1.58;1.30;;;10.00;68.10;;;;;;5022788;28;20042;-78
2023/10/10 15:36:43;;;;;;;3.58;1.35;;;9.90;68.00;;;;;;5024022;28;20041;-77
2023/10/10 15:39:10;;;;;;;2.78;1.30;;;9.90;68.00;;;;;;5023416;28;20045;-78
2023/10/10 15:41:38;;;;;;;2.28;1.17;;;9.90;68.10;;;;;;5023062;28;20089;-78
2023/10/10 15:44:06;;;;;;;1.35;1.10;;;9.80;68.10;;;;;;5022918;28;20033;-78
2023/10/10 15:46:35;;;;;;;3.97;1.30;;;9.80;69.70;;;;;;5021889;28;20069;-78
2023/10/10 15:49:08;;;;;;;2.13;1.27;;;9.80;69.80;;;;;;5023138;28;20791;-78
2023/10/10 15:51:37;;;;;;;1.30;1.20;;;9.80;69.70;;;;;;5038270;28;20037;-78
2023/10/10 15:54:05;;;;;;;2.08;1.05;;;9.80;69.20;;;;;;5021433;28;20045;-79
2023/10/10 15:56:31;;;;;;;2.50;1.27;;;9.80;69.00;;;;;;5022393;28;20033;-78
2023/10/10 15:58:57;;;;;;;1.77;1.40;;;9.70;68.70;;;;;;5024709;28;20539;-79
2023/10/10 16:01:27;;;;;;;1.45;1.35;;;9.80;68.50;;;;;;5022577;28;21041;-77
2023/10/10 16:04:05;;;;;;;1.20;1.10;;;9.70;68.60;;;;;;5022437;28;20172;-77
2023/10/10 16:06:35;;;;;;;1.83;1.10;;;9.70;68.40;;;;;;5022149;28;20041;-78
2023/10/10 16:09:18;;;;;;;3.60;1.48;;;9.70;68.40;;;;;;5021310;28;20392;-78
2023/10/10 16:11:52;;;;;;;1.90;1.10;;;9.70;68.50;;;;;;5023368;28;20033;-78
2023/10/10 16:14:18;;;;;;;1.15;1.02;;;9.60;68.20;;;;;;5024119;28;20052;-77
2023/10/10 16:16:47;;;;;;;2.97;1.50;;;9.60;68.30;;;;;;5021707;28;20037;-80
2023/10/10 16:19:17;;;;;;;1.40;1.30;;;9.50;68.50;;;;;;5023198;28;20034;-80
2023/10/10 16:21:44;;;;;;;1.90;1.10;;;9.50;68.50;;;;;;5020664;28;20157;-79
2023/10/10 16:24:16;;;;;;;1.45;1.35;;;9.50;68.10;;;;;;5022484;28;20404;-78
2023/10/10 16:26:46;;;;;;;1.70;1.17;;;9.50;68.20;;;;;;5022393;28;20500;-77